createdAt,value
2022-12-13T00:01:50.304Z,14.20
2022-12-13T00:04:19.930Z,13.00
2022-12-13T00:06:48.511Z,15.27
2022-12-13T00:09:18.026Z,15.50
2022-12-13T00:11:48.882Z,14.67
2022-12-13T00:14:17.801Z,14.60
2022-12-13T00:16:48.114Z,14.90
2022-12-13T00:19:17.261Z,16.37
2022-12-13T00:21:45.748Z,16.07
2022-12-13T00:24:14.688Z,15.80
2022-12-13T00:26:42.919Z,15.40
2022-12-13T00:29:14.120Z,15.57
2022-12-13T00:34:31.101Z,15.03
2022-12-13T00:37:00.210Z,16.47
2022-12-13T00:39:28.969Z,15.33
2022-12-13T00:41:57.498Z,15.23
2022-12-13T00:44:27.122Z,16.23
2022-12-13T00:46:56.545Z,16.67
2022-12-13T00:49:25.190Z,15.87
2022-12-13T00:51:53.599Z,15.57
2022-12-13T00:54:21.973Z,15.83
2022-12-13T00:56:51.625Z,17.27
2022-12-13T00:59:21.262Z,15.33
2022-12-13T01:01:51.311Z,15.17
2022-12-13T01:04:19.558Z,15.67
2022-12-13T01:06:51.438Z,16.37
2022-12-13T01:09:21.709Z,16.80
2022-12-13T01:11:51.349Z,15.37
2022-12-13T01:14:20.104Z,17.47
2022-12-13T01:16:48.344Z,16.27
2022-12-13T01:19:18.468Z,15.47
2022-12-13T01:21:46.670Z,15.20
2022-12-13T01:24:15.198Z,15.77
2022-12-13T01:26:43.373Z,15.77
2022-12-13T01:29:11.692Z,15.07
2022-12-13T01:31:41.629Z,17.43
2022-12-13T01:34:11.480Z,16.17
2022-12-13T01:36:42.821Z,15.17
2022-12-13T01:39:14.556Z,16.23
2022-12-13T01:41:45.224Z,15.93
2022-12-13T01:44:50.904Z,15.60
2022-12-13T01:47:28.469Z,15.77
2022-12-13T01:49:59.835Z,15.33
2022-12-13T01:52:31.592Z,15.83
2022-12-13T01:55:03.764Z,15.97
2022-12-13T01:57:34.185Z,16.87
2022-12-13T02:00:03.697Z,15.17
2022-12-13T02:02:35.658Z,16.17
2022-12-13T02:05:09.849Z,14.03
2022-12-13T02:07:43.415Z,15.23
2022-12-13T02:10:12.298Z,15.63
2022-12-13T02:12:41.741Z,16.07
2022-12-13T02:15:13.475Z,16.53
2022-12-13T02:17:53.958Z,15.07
2022-12-13T02:20:39.314Z,16.00
2022-12-13T02:23:35.820Z,14.07
2022-12-13T02:26:39.538Z,16.77
2022-12-13T02:29:30.415Z,16.10
2022-12-13T02:32:06.052Z,16.60
2022-12-13T02:34:40.554Z,16.40
2022-12-13T02:37:17.550Z,16.73
2022-12-13T02:39:52.391Z,15.47
2022-12-13T02:42:25.995Z,15.30
2022-12-13T02:44:59.042Z,16.70
2022-12-13T02:47:31.969Z,17.23
2022-12-13T02:50:02.978Z,17.17
2022-12-13T02:52:32.985Z,15.13
2022-12-13T02:55:01.327Z,15.53
2022-12-13T02:57:31.641Z,17.73
2022-12-13T03:00:03.752Z,16.97
2022-12-13T03:02:47.173Z,16.23
2022-12-13T03:05:45.901Z,15.00
2022-12-13T03:08:24.681Z,15.67
2022-12-13T03:11:06.672Z,15.60
2022-12-13T03:13:41.356Z,16.20
2022-12-13T03:16:15.731Z,15.30
2022-12-13T03:18:53.920Z,13.73
2022-12-13T03:21:23.815Z,15.87
2022-12-13T03:23:52.488Z,16.47
2022-12-13T03:26:24.129Z,15.27
2022-12-13T03:28:53.678Z,14.57
2022-12-13T03:31:22.282Z,15.43
2022-12-13T03:33:51.979Z,14.93
2022-12-13T03:36:20.698Z,13.50
2022-12-13T03:38:52.368Z,15.13
2022-12-13T03:41:23.409Z,13.97
2022-12-13T03:43:51.949Z,15.13
2022-12-13T03:46:20.263Z,14.20
2022-12-13T03:48:48.547Z,13.13
2022-12-13T03:51:18.431Z,14.30
2022-12-13T03:53:46.694Z,13.90
2022-12-13T03:56:14.934Z,14.17
2022-12-13T03:58:43.272Z,14.77
2022-12-13T04:01:13.552Z,15.43
2022-12-13T04:03:43.990Z,14.93
2022-12-13T04:06:12.816Z,15.17
2022-12-13T04:08:52.102Z,13.63
2022-12-13T04:11:34.422Z,13.50
2022-12-13T04:14:02.629Z,13.67
2022-12-13T04:16:30.829Z,14.40
2022-12-13T04:18:59.117Z,14.07
2022-12-13T04:21:27.330Z,14.67
2022-12-13T04:24:01.101Z,14.43
2022-12-13T04:26:32.152Z,15.20
2022-12-13T04:29:00.478Z,13.80
2022-12-13T04:31:28.751Z,14.60
2022-12-13T04:33:57.194Z,13.80
2022-12-13T04:36:31.725Z,13.93
2022-12-13T04:39:03.478Z,12.87
2022-12-13T04:41:51.363Z,12.73
2022-12-13T04:44:29.090Z,12.63
2022-12-13T04:47:01.009Z,13.60
2022-12-13T04:49:30.218Z,13.33
2022-12-13T04:52:01.275Z,13.47
2022-12-13T04:54:35.626Z,14.80
2022-12-13T04:57:09.079Z,13.73
2022-12-13T04:59:37.948Z,14.67
2022-12-13T05:02:07.818Z,11.87
2022-12-13T05:04:36.717Z,12.47
2022-12-13T05:07:05.168Z,14.20
2022-12-13T05:09:34.705Z,13.70
2022-12-13T05:12:02.943Z,13.40
2022-12-13T05:14:31.596Z,14.10
2022-12-13T05:17:00.083Z,13.37
2022-12-13T05:19:31.273Z,13.60
2022-12-13T05:22:01.536Z,14.73
2022-12-13T05:24:31.477Z,14.77
2022-12-13T05:27:01.093Z,13.63
2022-12-13T05:29:29.488Z,14.33
2022-12-13T05:31:57.784Z,13.97
2022-12-13T05:34:26.182Z,15.70
2022-12-13T05:36:54.483Z,13.27
2022-12-13T05:39:27.989Z,13.60
2022-12-13T05:42:01.810Z,11.87
2022-12-13T05:44:32.223Z,13.27
2022-12-13T05:47:02.252Z,13.10
2022-12-13T05:49:32.479Z,12.67
2022-12-13T05:52:00.869Z,12.27
2022-12-13T05:54:29.141Z,12.70
2022-12-13T05:56:57.466Z,12.47
2022-12-13T05:59:27.058Z,13.53
2022-12-13T06:01:55.478Z,13.60
2022-12-13T06:04:23.834Z,13.67
2022-12-13T06:06:52.663Z,12.77
2022-12-13T06:09:21.736Z,13.93
2022-12-13T06:11:50.476Z,14.07
2022-12-13T06:14:22.343Z,12.77
2022-12-13T06:16:53.808Z,11.87
2022-12-13T06:19:22.194Z,12.63
2022-12-13T06:21:50.752Z,12.90
2022-12-13T06:24:20.876Z,12.10
2022-12-13T06:26:49.157Z,11.40
2022-12-13T06:29:24.206Z,11.23
2022-12-13T06:32:02.444Z,12.47
2022-12-13T06:34:33.904Z,11.77
2022-12-13T06:37:03.608Z,11.90
2022-12-13T06:39:32.965Z,12.20
2022-12-13T06:42:03.331Z,12.27
2022-12-13T06:44:31.905Z,12.27
2022-12-13T06:47:12.219Z,12.23
2022-12-13T06:49:43.997Z,11.57
2022-12-13T06:52:14.699Z,12.50
2022-12-13T06:54:43.652Z,12.53
2022-12-13T06:57:12.517Z,12.53
2022-12-13T06:59:41.512Z,13.47
2022-12-13T07:02:24.234Z,12.60
2022-12-13T07:04:55.623Z,14.13
2022-12-13T07:07:25.687Z,12.70
2022-12-13T07:09:54.617Z,12.57
2022-12-13T07:12:23.098Z,12.10
2022-12-13T07:14:51.342Z,13.00
2022-12-13T07:17:33.338Z,13.17
2022-12-13T07:20:07.913Z,14.63
2022-12-13T07:22:42.959Z,12.97
2022-12-13T07:25:27.179Z,12.60
2022-12-13T07:28:01.454Z,12.60
2022-12-13T07:30:32.176Z,12.90
2022-12-13T07:33:02.415Z,12.63
2022-12-13T07:35:37.007Z,13.13
2022-12-13T07:38:07.554Z,14.10
2022-12-13T07:40:36.069Z,16.30
2022-12-13T07:43:08.390Z,15.17
2022-12-13T07:45:37.878Z,13.93
2022-12-13T07:48:08.939Z,16.43
2022-12-13T07:50:38.132Z,15.03
2022-12-13T07:53:07.872Z,14.97
2022-12-13T07:55:36.527Z,15.13
2022-12-13T07:58:06.577Z,14.33
2022-12-13T08:00:36.986Z,14.13
2022-12-13T08:03:07.316Z,18.60
2022-12-13T08:05:38.902Z,36.53
2022-12-13T08:08:09.255Z,24.00
2022-12-13T08:10:37.970Z,18.97
2022-12-13T08:13:07.345Z,15.03
2022-12-13T08:15:35.722Z,13.83
2022-12-13T08:18:04.783Z,17.73
2022-12-13T08:20:34.542Z,13.80
2022-12-13T08:23:03.095Z,18.17
2022-12-13T08:25:32.031Z,24.10
2022-12-13T08:28:02.261Z,17.50
2022-12-13T08:30:33.301Z,15.13
2022-12-13T08:33:05.250Z,14.73
2022-12-13T08:35:35.375Z,14.03
2022-12-13T08:38:04.394Z,13.37
2022-12-13T08:40:33.059Z,13.77
2022-12-13T08:43:01.279Z,15.33
2022-12-13T08:45:29.558Z,14.33
2022-12-13T08:47:59.801Z,14.30
2022-12-13T08:50:28.317Z,14.30
2022-12-13T08:52:58.691Z,15.03
2022-12-13T08:55:31.794Z,14.53
2022-12-13T08:58:08.436Z,15.43
2022-12-13T09:00:39.041Z,37.67
2022-12-13T09:03:09.780Z,33.73
2022-12-13T09:05:39.213Z,16.33
2022-12-13T09:08:22.827Z,14.43
2022-12-13T09:10:59.316Z,14.60
2022-12-13T09:13:31.585Z,16.03
2022-12-13T09:16:04.407Z,15.57
2022-12-13T09:18:36.476Z,14.73
2022-12-13T09:21:10.966Z,16.53
2022-12-13T09:23:45.842Z,15.10
2022-12-13T09:26:16.881Z,21.00
2022-12-13T09:28:45.214Z,16.17
2022-12-13T09:31:15.288Z,18.90
2022-12-13T09:33:44.986Z,19.17
2022-12-13T09:36:16.857Z,16.03
2022-12-13T09:38:47.082Z,15.43
2022-12-13T09:41:28.999Z,14.93
2022-12-13T09:44:01.292Z,14.63
2022-12-13T09:46:34.194Z,14.50
2022-12-13T09:49:05.950Z,14.13
2022-12-13T09:51:47.309Z,12.17
2022-12-13T09:54:23.593Z,13.93
2022-12-13T09:56:54.578Z,14.90
2022-12-13T09:59:28.902Z,13.60
2022-12-13T10:01:57.392Z,14.93
2022-12-13T10:04:25.682Z,13.27
2022-12-13T10:06:55.126Z,15.37
2022-12-13T10:09:24.956Z,15.33
2022-12-13T10:11:54.695Z,12.77
2022-12-13T10:14:28.823Z,14.10
2022-12-13T10:17:01.409Z,14.90
2022-12-13T10:19:36.064Z,14.73
2022-12-13T10:22:07.273Z,14.87
2022-12-13T10:24:52.063Z,13.27
2022-12-13T10:27:25.225Z,13.73
2022-12-13T10:29:58.972Z,13.80
2022-12-13T10:32:27.907Z,13.70
2022-12-13T10:34:56.434Z,12.40
2022-12-13T10:37:30.554Z,12.53
2022-12-13T10:40:00.616Z,13.73
2022-12-13T10:42:33.874Z,12.03
2022-12-13T10:45:15.673Z,14.13
2022-12-13T10:47:46.979Z,12.53
2022-12-13T10:50:27.360Z,11.50
2022-12-13T10:52:56.735Z,13.50
2022-12-13T10:55:31.706Z,15.03
2022-12-13T10:58:02.029Z,13.63
2022-12-13T11:00:37.931Z,13.90
2022-12-13T11:03:08.652Z,20.93
2022-12-13T11:05:39.852Z,13.33
2022-12-13T11:08:17.182Z,12.83
2022-12-13T11:10:47.418Z,12.00
2022-12-13T11:13:26.329Z,13.83
2022-12-13T11:15:57.979Z,11.30
2022-12-13T11:18:28.121Z,11.50
2022-12-13T11:21:00.070Z,11.53
2022-12-13T11:23:31.107Z,11.50
2022-12-13T11:26:06.855Z,12.33
2022-12-13T11:29:02.344Z,10.70
2022-12-13T11:31:41.204Z,11.60
2022-12-13T11:34:19.961Z,10.57
2022-12-13T11:36:56.913Z,10.80
2022-12-13T11:39:32.196Z,12.17
2022-12-13T11:42:11.111Z,13.17
2022-12-13T11:44:48.281Z,12.43
2022-12-13T11:47:24.190Z,11.10
2022-12-13T11:49:53.805Z,11.37
2022-12-13T11:52:28.051Z,12.50
2022-12-13T11:55:00.328Z,10.70
2022-12-13T11:57:44.053Z,10.03
2022-12-13T12:00:34.520Z,10.57
2022-12-13T12:03:18.589Z,10.83
2022-12-13T12:05:56.124Z,9.87
2022-12-13T12:08:34.371Z,10.40
2022-12-13T12:11:12.068Z,10.70
2022-12-13T12:13:51.412Z,10.43
2022-12-13T12:16:31.943Z,10.40
2022-12-13T12:19:01.312Z,10.07
2022-12-13T12:22:12.278Z,10.93
2022-12-13T12:24:35.549Z,10.93
2022-12-13T12:27:22.728Z,10.60
2022-12-13T12:30:07.421Z,11.33
2022-12-13T12:32:48.235Z,11.40
2022-12-13T12:35:46.857Z,11.23
2022-12-13T12:38:39.545Z,11.13
2022-12-13T12:41:24.320Z,10.87
2022-12-13T12:43:57.270Z,10.87
2022-12-13T12:47:18.088Z,10.47
2022-12-13T12:50:18.059Z,11.03
2022-12-13T12:52:56.200Z,11.10
2022-12-13T12:55:32.202Z,10.93
2022-12-13T12:58:06.774Z,12.27
2022-12-13T13:00:44.807Z,12.03
2022-12-13T13:03:26.738Z,11.10
2022-12-13T13:06:02.104Z,12.70
2022-12-13T13:08:36.862Z,12.33
2022-12-13T13:11:24.512Z,11.47
2022-12-13T13:14:23.939Z,10.20
2022-12-13T13:16:52.393Z,11.73
2022-12-13T13:19:47.869Z,10.67
2022-12-13T13:22:32.267Z,11.67
2022-12-13T13:25:32.598Z,11.23
2022-12-13T13:28:07.693Z,10.27
2022-12-13T13:30:36.986Z,11.33
2022-12-13T13:33:16.418Z,11.70
2022-12-13T13:35:50.486Z,12.83
2022-12-13T13:38:53.003Z,12.10
2022-12-13T13:41:58.273Z,9.87
2022-12-13T13:45:09.095Z,12.47
2022-12-13T13:47:44.734Z,10.03
2022-12-13T13:50:49.251Z,11.47
2022-12-13T13:53:53.567Z,12.73
2022-12-13T13:56:41.081Z,13.03
2022-12-13T13:59:53.814Z,12.80
2022-12-13T14:03:00.898Z,12.10
2022-12-13T14:05:58.046Z,12.67
2022-12-13T14:08:35.928Z,15.50
2022-12-13T14:11:35.807Z,18.63
2022-12-13T14:14:51.614Z,11.40
2022-12-13T14:18:21.362Z,13.53
2022-12-13T14:21:04.470Z,16.87
2022-12-13T14:23:45.769Z,22.03
2022-12-13T14:26:44.059Z,12.00
2022-12-13T14:29:16.458Z,11.53
2022-12-13T14:31:47.775Z,15.57
2022-12-13T14:34:23.707Z,13.20
2022-12-13T14:37:00.112Z,11.00
2022-12-13T14:39:31.153Z,13.87
2022-12-13T14:42:01.179Z,13.60
2022-12-13T14:44:31.076Z,12.30
2022-12-13T14:47:02.405Z,13.37
2022-12-13T14:49:33.829Z,11.83
2022-12-13T14:52:06.724Z,14.50
2022-12-13T14:54:42.591Z,13.63
2022-12-13T14:57:18.292Z,16.40
2022-12-13T14:59:50.550Z,13.00
2022-12-13T15:02:30.319Z,13.60
2022-12-13T15:05:01.485Z,13.50
2022-12-13T15:07:33.842Z,12.70
2022-12-13T15:10:07.156Z,15.23
2022-12-13T15:12:35.644Z,13.63
2022-12-13T15:15:07.215Z,12.20
2022-12-13T15:17:36.994Z,13.97
2022-12-13T15:20:33.328Z,13.07
2022-12-13T15:23:13.118Z,14.10
2022-12-13T15:25:44.551Z,12.60
2022-12-13T15:28:21.209Z,17.53
2022-12-13T15:30:50.782Z,13.53
2022-12-13T15:33:24.361Z,15.60
2022-12-13T15:36:08.851Z,15.50
2022-12-13T15:38:38.934Z,15.27
2022-12-13T15:41:18.030Z,12.93
2022-12-13T15:43:48.196Z,13.67
2022-12-13T15:46:26.086Z,13.87
2022-12-13T15:48:56.176Z,14.40
2022-12-13T15:51:30.467Z,16.03
2022-12-13T15:54:06.965Z,20.30
2022-12-13T15:56:38.834Z,22.83
2022-12-13T15:59:26.077Z,22.30
2022-12-13T16:01:58.453Z,15.80
2022-12-13T16:04:29.560Z,24.43
2022-12-13T16:06:58.590Z,40.70
2022-12-13T16:09:31.134Z,23.67
2022-12-13T16:12:03.083Z,28.43
2022-12-13T16:14:49.209Z,21.13
2022-12-13T16:17:25.748Z,19.07
2022-12-13T16:19:54.960Z,18.93
2022-12-13T16:22:24.208Z,19.47
2022-12-13T16:24:53.153Z,26.87
2022-12-13T16:27:22.785Z,24.50
2022-12-13T16:29:51.047Z,25.10
2022-12-13T16:32:19.325Z,33.73
2022-12-13T16:34:47.873Z,21.77
2022-12-13T16:37:26.342Z,23.53
2022-12-13T16:39:56.849Z,21.23
2022-12-13T16:42:27.438Z,19.70
2022-12-13T16:45:32.289Z,17.27
2022-12-13T16:47:49.079Z,16.87
2022-12-13T16:50:20.139Z,16.00
2022-12-13T16:52:48.966Z,17.17
2022-12-13T16:55:17.355Z,19.83
2022-12-13T16:57:58.072Z,19.03
2022-12-13T17:00:26.827Z,17.43
2022-12-13T17:02:55.683Z,19.73
2022-12-13T17:05:25.598Z,18.80
2022-12-13T17:07:53.954Z,16.97
2022-12-13T17:10:22.759Z,18.80
2022-12-13T17:12:51.094Z,17.17
2022-12-13T17:15:20.926Z,17.70
2022-12-13T17:17:49.698Z,16.47
2022-12-13T17:20:19.662Z,18.33
2022-12-13T17:22:48.004Z,17.87
2022-12-13T17:25:16.342Z,17.17
2022-12-13T17:27:45.480Z,15.13
2022-12-13T17:30:17.479Z,20.67
2022-12-13T17:32:47.625Z,19.17
2022-12-13T17:35:18.555Z,18.20
2022-12-13T17:37:47.700Z,18.77
2022-12-13T17:40:17.017Z,16.87
2022-12-13T17:42:46.014Z,19.50
2022-12-13T17:45:14.291Z,17.43
2022-12-13T17:47:42.617Z,16.73
2022-12-13T17:50:12.681Z,17.30
2022-12-13T17:52:41.289Z,16.63
2022-12-13T17:55:17.801Z,17.00
2022-12-13T17:57:46.893Z,17.67
2022-12-13T18:00:16.868Z,18.23
2022-12-13T18:02:54.895Z,17.33
2022-12-13T18:05:26.408Z,17.27
2022-12-13T18:07:54.738Z,18.70
2022-12-13T18:10:29.324Z,16.87
2022-12-13T18:12:59.118Z,20.03
2022-12-13T18:15:27.468Z,18.90
2022-12-13T18:18:11.251Z,18.40
2022-12-13T18:20:41.415Z,19.00
2022-12-13T18:23:10.290Z,18.07
2022-12-13T18:25:39.197Z,17.97
2022-12-13T18:28:09.441Z,14.50
2022-12-13T18:30:38.216Z,16.30
2022-12-13T18:33:07.155Z,18.07
2022-12-13T18:35:35.589Z,19.23
2022-12-13T18:38:06.943Z,15.83
2022-12-13T18:40:35.757Z,22.80
2022-12-13T18:43:04.133Z,27.97
2022-12-13T18:45:33.335Z,28.00
2022-12-13T18:48:01.578Z,21.37
2022-12-13T18:50:30.272Z,19.23
2022-12-13T18:52:58.656Z,21.50
2022-12-13T18:55:28.333Z,17.90
2022-12-13T18:57:56.716Z,17.50
2022-12-13T19:00:26.832Z,15.17
2022-12-13T19:02:55.198Z,18.47
2022-12-13T19:05:23.724Z,17.47
2022-12-13T19:07:52.200Z,17.57
2022-12-13T19:10:20.663Z,17.97
2022-12-13T19:12:50.485Z,16.30
2022-12-13T19:15:18.969Z,15.67
2022-12-13T19:17:48.005Z,14.40
2022-12-13T19:20:16.592Z,14.97
2022-12-13T19:22:46.488Z,15.60
2022-12-13T19:25:17.049Z,20.17
2022-12-13T19:27:46.810Z,18.77
2022-12-13T19:30:22.105Z,16.13
2022-12-13T19:32:50.509Z,17.07
2022-12-13T19:35:18.889Z,19.03
2022-12-13T19:37:47.299Z,17.10
2022-12-13T19:40:15.691Z,16.67
2022-12-13T19:42:44.285Z,15.50
2022-12-13T19:45:12.766Z,19.13
2022-12-13T19:47:42.625Z,19.43
2022-12-13T19:50:15.301Z,18.37
2022-12-13T19:52:44.118Z,16.43
2022-12-13T19:55:12.362Z,14.73
2022-12-13T19:57:40.753Z,15.23
2022-12-13T20:00:11.654Z,16.57
2022-12-13T20:02:39.996Z,14.20
2022-12-13T20:05:11.076Z,14.03
2022-12-13T20:07:39.784Z,14.57
2022-12-13T20:10:10.417Z,13.87
2022-12-13T20:12:41.087Z,14.83
2022-12-13T20:15:10.850Z,16.13
2022-12-13T20:17:39.145Z,15.13
2022-12-13T20:20:10.759Z,23.00
2022-12-13T20:22:39.223Z,18.37
2022-12-13T20:25:09.497Z,14.80
2022-12-13T20:27:38.110Z,13.10
2022-12-13T20:30:09.093Z,14.17
2022-12-13T20:32:38.061Z,13.10
2022-12-13T20:35:08.206Z,13.57
2022-12-13T20:37:38.527Z,13.77
2022-12-13T20:40:08.596Z,14.37
2022-12-13T20:42:37.009Z,12.77
2022-12-13T20:45:08.037Z,13.63
2022-12-13T20:47:38.133Z,13.93
2022-12-13T20:50:08.924Z,12.83
2022-12-13T20:52:39.751Z,13.67
2022-12-13T20:55:10.263Z,13.60
2022-12-13T20:57:38.711Z,14.23
2022-12-13T21:00:09.643Z,14.23
2022-12-13T21:02:39.715Z,14.47
2022-12-13T21:05:09.486Z,14.33
2022-12-13T21:07:56.837Z,12.77
2022-12-13T21:10:25.375Z,14.87
2022-12-13T21:12:53.574Z,13.60
2022-12-13T21:15:21.871Z,15.60
2022-12-13T21:17:50.055Z,16.53
2022-12-13T21:20:18.355Z,15.07
2022-12-13T21:22:48.012Z,17.20
2022-12-13T21:25:17.189Z,21.10
2022-12-13T21:27:45.760Z,21.33
2022-12-13T21:30:16.872Z,16.50
2022-12-13T21:32:48.451Z,16.60
2022-12-13T21:35:19.627Z,15.53
2022-12-13T21:37:49.208Z,14.30
2022-12-13T21:40:17.677Z,13.67
2022-12-13T21:42:46.623Z,14.47
2022-12-13T21:45:15.206Z,14.10
2022-12-13T21:47:43.452Z,14.23
2022-12-13T21:50:11.750Z,13.40
2022-12-13T21:52:42.866Z,13.77
2022-12-13T21:55:38.318Z,12.27
2022-12-13T21:58:20.499Z,12.60
2022-12-13T22:00:48.954Z,13.27
2022-12-13T22:03:17.415Z,13.20
2022-12-13T22:05:45.624Z,13.53
2022-12-13T22:08:13.837Z,13.53
2022-12-13T22:10:57.313Z,12.53
2022-12-13T22:13:25.629Z,12.77
2022-12-13T22:15:53.875Z,12.57
2022-12-13T22:18:22.346Z,13.00
2022-12-13T22:20:56.971Z,12.90
2022-12-13T22:23:25.184Z,14.07
2022-12-13T22:25:54.997Z,14.33
2022-12-13T22:28:23.244Z,14.03
2022-12-13T22:30:54.662Z,14.40
2022-12-13T22:33:22.853Z,13.43
2022-12-13T22:35:51.617Z,12.10
2022-12-13T22:38:19.904Z,12.50
2022-12-13T22:40:48.090Z,13.20
2022-12-13T22:43:20.716Z,14.27
2022-12-13T22:45:49.108Z,15.73
2022-12-13T22:48:17.348Z,16.20
2022-12-13T22:50:45.840Z,18.37
2022-12-13T22:53:14.462Z,16.57
2022-12-13T22:55:42.687Z,14.83
2022-12-13T22:58:10.851Z,16.80
2022-12-13T23:00:40.538Z,15.23
2022-12-13T23:03:08.870Z,14.03
2022-12-13T23:05:37.548Z,12.17
2022-12-13T23:08:06.986Z,14.60
2022-12-13T23:10:53.942Z,12.87
2022-12-13T23:13:22.297Z,13.60
2022-12-13T23:15:51.857Z,11.90
2022-12-13T23:18:20.082Z,11.60
2022-12-13T23:20:48.529Z,12.03
2022-12-13T23:23:16.845Z,12.03
2022-12-13T23:25:45.118Z,11.00
2022-12-13T23:28:17.322Z,11.10
2022-12-13T23:30:45.558Z,12.03
2022-12-13T23:33:15.195Z,11.57
2022-12-13T23:35:43.638Z,11.17
2022-12-13T23:38:11.895Z,11.93
2022-12-13T23:40:40.160Z,10.53
2022-12-13T23:43:08.732Z,11.23
2022-12-13T23:45:36.959Z,10.70
2022-12-13T23:48:06.680Z,11.90
2022-12-13T23:50:36.278Z,10.40
2022-12-13T23:53:04.651Z,11.33
2022-12-13T23:55:32.850Z,12.63
2022-12-13T23:58:01.038Z,11.47
